sensor_id;sensor_type;location;lat;lon;timestamp;P1;durP1;ratioP1;P2;durP2;ratioP2
69203;SDS011;56317;27.658;85.326;2022-09-12T00:00:05;29.05;;;18.02;;
69203;SDS011;56317;27.658;85.326;2022-09-12T00:02:32;29.63;;;18.40;;
69203;SDS011;56317;27.658;85.326;2022-09-12T00:04:59;28.92;;;19.33;;
69203;SDS011;56317;27.658;85.326;2022-09-12T00:07:27;27.13;;;19.42;;
69203;SDS011;56317;27.658;85.326;2022-09-12T00:09:54;32.60;;;19.27;;
69203;SDS011;56317;27.658;85.326;2022-09-12T00:12:21;45.05;;;19.38;;
69203;SDS011;56317;27.658;85.326;2022-09-12T00:14:48;34.40;;;19.02;;
69203;SDS011;56317;27.658;85.326;2022-09-12T00:17:15;36.28;;;20.45;;
69203;SDS011;56317;27.658;85.326;2022-09-12T00:19:42;35.80;;;21.92;;
69203;SDS011;56317;27.658;85.326;2022-09-12T00:22:09;38.30;;;21.60;;
69203;SDS011;56317;27.658;85.326;2022-09-12T00:24:36;29.33;;;20.02;;
69203;SDS011;56317;27.658;85.326;2022-09-12T00:27:05;38.78;;;21.65;;
69203;SDS011;56317;27.658;85.326;2022-09-12T00:29:32;32.17;;;21.25;;
69203;SDS011;56317;27.658;85.326;2022-09-12T00:31:59;34.45;;;20.73;;
69203;SDS011;56317;27.658;85.326;2022-09-12T00:34:26;39.22;;;22.20;;
69203;SDS011;56317;27.658;85.326;2022-09-12T00:36:53;30.27;;;20.33;;
69203;SDS011;56317;27.658;85.326;2022-09-12T00:39:20;43.67;;;21.67;;
69203;SDS011;56317;27.658;85.326;2022-09-12T00:41:48;30.08;;;20.20;;
69203;SDS011;56317;27.658;85.326;2022-09-12T00:51:50;39.78;;;21.67;;
69203;SDS011;56317;27.658;85.326;2022-09-12T00:54:25;36.75;;;21.02;;
69203;SDS011;56317;27.658;85.326;2022-09-12T00:57:00;37.15;;;21.65;;
69203;SDS011;56317;27.658;85.326;2022-09-12T01:02:20;34.88;;;21.17;;
69203;SDS011;56317;27.658;85.326;2022-09-12T01:04:48;34.42;;;22.13;;
69203;SDS011;56317;27.658;85.326;2022-09-12T01:07:18;40.70;;;21.42;;
69203;SDS011;56317;27.658;85.326;2022-09-12T01:09:46;44.45;;;21.52;;
69203;SDS011;56317;27.658;85.326;2022-09-12T01:12:14;33.63;;;20.27;;
69203;SDS011;56317;27.658;85.326;2022-09-12T01:14:42;40.00;;;23.52;;
69203;SDS011;56317;27.658;85.326;2022-09-12T01:17:12;37.60;;;20.90;;
69203;SDS011;56317;27.658;85.326;2022-09-12T01:31:14;45.40;;;28.05;;
69203;SDS011;56317;27.658;85.326;2022-09-12T01:36:36;46.13;;;24.48;;
69203;SDS011;56317;27.658;85.326;2022-09-12T01:44:54;51.00;;;27.50;;
69203;SDS011;56317;27.658;85.326;2022-09-12T01:47:46;40.25;;;25.42;;
69203;SDS011;56317;27.658;85.326;2022-09-12T01:50:43;40.45;;;24.05;;
69203;SDS011;56317;27.658;85.326;2022-09-12T01:53:28;42.17;;;25.80;;
69203;SDS011;56317;27.658;85.326;2022-09-12T01:56:19;35.80;;;26.05;;
69203;SDS011;56317;27.658;85.326;2022-09-12T02:01:54;45.58;;;26.55;;
69203;SDS011;56317;27.658;85.326;2022-09-12T02:04:54;40.03;;;23.75;;
69203;SDS011;56317;27.658;85.326;2022-09-12T02:07:45;33.88;;;23.05;;
69203;SDS011;56317;27.658;85.326;2022-09-12T02:10:27;50.22;;;26.98;;
69203;SDS011;56317;27.658;85.326;2022-09-12T02:13:02;45.10;;;27.13;;
69203;SDS011;56317;27.658;85.326;2022-09-12T02:15:36;46.30;;;29.30;;
69203;SDS011;56317;27.658;85.326;2022-09-12T02:18:10;44.13;;;27.92;;
69203;SDS011;56317;27.658;85.326;2022-09-12T02:20:42;43.05;;;28.13;;
69203;SDS011;56317;27.658;85.326;2022-09-12T02:23:13;55.30;;;31.67;;
69203;SDS011;56317;27.658;85.326;2022-09-12T02:25:53;44.27;;;27.50;;
69203;SDS011;56317;27.658;85.326;2022-09-12T02:28:29;44.33;;;26.85;;
69203;SDS011;56317;27.658;85.326;2022-09-12T02:31:08;43.80;;;27.83;;
69203;SDS011;56317;27.658;85.326;2022-09-12T02:39:08;49.28;;;30.67;;
69203;SDS011;56317;27.658;85.326;2022-09-12T02:41:36;51.17;;;27.63;;
69203;SDS011;56317;27.658;85.326;2022-09-12T02:44:03;42.47;;;29.75;;
69203;SDS011;56317;27.658;85.326;2022-09-12T02:46:41;43.35;;;29.73;;
69203;SDS011;56317;27.658;85.326;2022-09-12T02:49:13;49.58;;;29.50;;
69203;SDS011;56317;27.658;85.326;2022-09-12T02:51:42;57.45;;;31.25;;
69203;SDS011;56317;27.658;85.326;2022-09-12T02:54:11;48.58;;;29.67;;
69203;SDS011;56317;27.658;85.326;2022-09-12T02:56:42;49.47;;;28.07;;
69203;SDS011;56317;27.658;85.326;2022-09-12T02:59:11;45.38;;;28.67;;
69203;SDS011;56317;27.658;85.326;2022-09-12T03:09:48;48.35;;;28.42;;
69203;SDS011;56317;27.658;85.326;2022-09-12T03:18:00;40.05;;;27.25;;
69203;SDS011;56317;27.658;85.326;2022-09-12T03:20:49;46.95;;;28.05;;
69203;SDS011;56317;27.658;85.326;2022-09-12T03:23:45;50.63;;;27.77;;
69203;SDS011;56317;27.658;85.326;2022-09-12T03:26:39;38.60;;;28.02;;
69203;SDS011;56317;27.658;85.326;2022-09-12T03:29:15;38.67;;;27.53;;
69203;SDS011;56317;27.658;85.326;2022-09-12T03:31:51;40.70;;;27.92;;
69203;SDS011;56317;27.658;85.326;2022-09-12T03:34:24;43.15;;;28.27;;
69203;SDS011;56317;27.658;85.326;2022-09-12T03:36:52;39.70;;;26.65;;
69203;SDS011;56317;27.658;85.326;2022-09-12T03:39:20;41.30;;;27.65;;
69203;SDS011;56317;27.658;85.326;2022-09-12T03:41:51;44.88;;;27.27;;
69203;SDS011;56317;27.658;85.326;2022-09-12T03:44:19;34.83;;;26.05;;
69203;SDS011;56317;27.658;85.326;2022-09-12T03:46:46;38.15;;;24.08;;
69203;SDS011;56317;27.658;85.326;2022-09-12T03:49:14;36.38;;;23.15;;
69203;SDS011;56317;27.658;85.326;2022-09-12T03:51:42;30.90;;;22.83;;
69203;SDS011;56317;27.658;85.326;2022-09-12T03:54:09;39.20;;;25.70;;
69203;SDS011;56317;27.658;85.326;2022-09-12T03:56:37;31.63;;;22.48;;
69203;SDS011;56317;27.658;85.326;2022-09-12T03:59:06;32.53;;;23.10;;
69203;SDS011;56317;27.658;85.326;2022-09-12T04:01:33;40.65;;;25.80;;
69203;SDS011;56317;27.658;85.326;2022-09-12T04:04:02;33.28;;;23.30;;
69203;SDS011;56317;27.658;85.326;2022-09-12T04:06:29;35.13;;;23.95;;
69203;SDS011;56317;27.658;85.326;2022-09-12T04:08:56;33.33;;;22.83;;
69203;SDS011;56317;27.658;85.326;2022-09-12T04:11:23;34.85;;;24.70;;
69203;SDS011;56317;27.658;85.326;2022-09-12T04:13:51;33.85;;;23.95;;
69203;SDS011;56317;27.658;85.326;2022-09-12T04:16:18;37.55;;;25.48;;
69203;SDS011;56317;27.658;85.326;2022-09-12T04:18:45;33.03;;;24.25;;
69203;SDS011;56317;27.658;85.326;2022-09-12T04:21:14;31.50;;;24.50;;
69203;SDS011;56317;27.658;85.326;2022-09-12T04:23:43;33.10;;;23.35;;
69203;SDS011;56317;27.658;85.326;2022-09-12T04:26:11;33.88;;;25.15;;
69203;SDS011;56317;27.658;85.326;2022-09-12T04:28:41;36.70;;;23.42;;
69203;SDS011;56317;27.658;85.326;2022-09-12T04:31:14;29.20;;;20.48;;
69203;SDS011;56317;27.658;85.326;2022-09-12T04:33:44;33.22;;;21.88;;
69203;SDS011;56317;27.658;85.326;2022-09-12T04:36:12;32.97;;;22.30;;
69203;SDS011;56317;27.658;85.326;2022-09-12T04:38:42;34.65;;;21.38;;
69203;SDS011;56317;27.658;85.326;2022-09-12T04:43:43;26.33;;;17.23;;
69203;SDS011;56317;27.658;85.326;2022-09-12T04:46:15;36.92;;;20.52;;
69203;SDS011;56317;27.658;85.326;2022-09-12T04:48:48;23.27;;;18.52;;
69203;SDS011;56317;27.658;85.326;2022-09-12T04:51:16;26.45;;;18.73;;
69203;SDS011;56317;27.658;85.326;2022-09-12T04:53:49;27.77;;;18.30;;
69203;SDS011;56317;27.658;85.326;2022-09-12T04:56:18;26.65;;;18.40;;
69203;SDS011;56317;27.658;85.326;2022-09-12T04:58:46;24.85;;;17.83;;
69203;SDS011;56317;27.658;85.326;2022-09-12T05:01:15;22.02;;;17.20;;
69203;SDS011;56317;27.658;85.326;2022-09-12T05:03:45;25.13;;;16.75;;
69203;SDS011;56317;27.658;85.326;2022-09-12T05:06:15;23.05;;;15.48;;
69203;SDS011;56317;27.658;85.326;2022-09-12T05:08:48;22.48;;;16.38;;
69203;SDS011;56317;27.658;85.326;2022-09-12T05:11:18;21.23;;;15.38;;
69203;SDS011;56317;27.658;85.326;2022-09-12T05:13:46;21.75;;;15.27;;
69203;SDS011;56317;27.658;85.326;2022-09-12T05:16:15;25.17;;;15.50;;
69203;SDS011;56317;27.658;85.326;2022-09-12T05:18:44;20.02;;;14.20;;
69203;SDS011;56317;27.658;85.326;2022-09-12T05:21:13;18.98;;;13.90;;
69203;SDS011;56317;27.658;85.326;2022-09-12T05:23:42;19.30;;;13.40;;
69203;SDS011;56317;27.658;85.326;2022-09-12T05:26:11;16.00;;;11.43;;
69203;SDS011;56317;27.658;85.326;2022-09-12T05:31:09;19.40;;;9.60;;
69203;SDS011;56317;27.658;85.326;2022-09-12T05:33:39;15.55;;;8.52;;
69203;SDS011;56317;27.658;85.326;2022-09-12T05:36:16;19.90;;;8.38;;
69203;SDS011;56317;27.658;85.326;2022-09-12T05:38:45;11.82;;;6.90;;
69203;SDS011;56317;27.658;85.326;2022-09-12T05:41:17;12.48;;;7.30;;
69203;SDS011;56317;27.658;85.326;2022-09-12T05:43:50;9.00;;;5.53;;
69203;SDS011;56317;27.658;85.326;2022-09-12T05:46:19;11.43;;;6.15;;
69203;SDS011;56317;27.658;85.326;2022-09-12T05:48:48;9.05;;;5.97;;
69203;SDS011;56317;27.658;85.326;2022-09-12T05:51:25;9.63;;;5.90;;
69203;SDS011;56317;27.658;85.326;2022-09-12T05:53:58;7.57;;;5.50;;
69203;SDS011;56317;27.658;85.326;2022-09-12T05:56:29;10.67;;;6.27;;
69203;SDS011;56317;27.658;85.326;2022-09-12T05:58:59;15.63;;;6.18;;
69203;SDS011;56317;27.658;85.326;2022-09-12T06:01:32;11.93;;;5.03;;
69203;SDS011;56317;27.658;85.326;2022-09-12T06:04:04;9.05;;;4.88;;
69203;SDS011;56317;27.658;85.326;2022-09-12T06:06:34;9.23;;;5.47;;
69203;SDS011;56317;27.658;85.326;2022-09-12T06:09:03;8.77;;;5.30;;
69203;SDS011;56317;27.658;85.326;2022-09-12T06:11:32;12.48;;;6.28;;
69203;SDS011;56317;27.658;85.326;2022-09-12T06:14:02;12.63;;;7.13;;
69203;SDS011;56317;27.658;85.326;2022-09-12T06:16:31;11.23;;;6.43;;
69203;SDS011;56317;27.658;85.326;2022-09-12T06:19:00;10.90;;;5.60;;
69203;SDS011;56317;27.658;85.326;2022-09-12T06:21:53;12.50;;;5.68;;
69203;SDS011;56317;27.658;85.326;2022-09-12T06:24:21;17.45;;;5.70;;
69203;SDS011;56317;27.658;85.326;2022-09-12T06:26:49;8.73;;;4.95;;
69203;SDS011;56317;27.658;85.326;2022-09-12T06:29:19;9.60;;;5.72;;
69203;SDS011;56317;27.658;85.326;2022-09-12T06:31:46;8.60;;;5.50;;
69203;SDS011;56317;27.658;85.326;2022-09-12T06:34:14;9.80;;;5.50;;
69203;SDS011;56317;27.658;85.326;2022-09-12T06:36:43;11.93;;;5.90;;
69203;SDS011;56317;27.658;85.326;2022-09-12T06:39:17;21.98;;;6.40;;
69203;SDS011;56317;27.658;85.326;2022-09-12T06:41:46;13.20;;;5.75;;
69203;SDS011;56317;27.658;85.326;2022-09-12T06:44:16;11.70;;;6.30;;
69203;SDS011;56317;27.658;85.326;2022-09-12T06:46:47;24.30;;;18.65;;
69203;SDS011;56317;27.658;85.326;2022-09-12T06:49:15;9.52;;;5.72;;
69203;SDS011;56317;27.658;85.326;2022-09-12T06:51:42;10.38;;;4.55;;
69203;SDS011;56317;27.658;85.326;2022-09-12T06:54:13;10.60;;;7.20;;
69203;SDS011;56317;27.658;85.326;2022-09-12T06:56:44;8.07;;;5.00;;
69203;SDS011;56317;27.658;85.326;2022-09-12T06:59:11;10.98;;;5.30;;
69203;SDS011;56317;27.658;85.326;2022-09-12T07:01:39;11.25;;;6.72;;
69203;SDS011;56317;27.658;85.326;2022-09-12T07:04:09;29.27;;;14.02;;
69203;SDS011;56317;27.658;85.326;2022-09-12T07:06:38;15.52;;;6.45;;
69203;SDS011;56317;27.658;85.326;2022-09-12T07:11:36;13.23;;;6.63;;
69203;SDS011;56317;27.658;85.326;2022-09-12T07:14:05;10.25;;;3.80;;
69203;SDS011;56317;27.658;85.326;2022-09-12T07:16:35;18.15;;;7.97;;
69203;SDS011;56317;27.658;85.326;2022-09-12T07:19:03;24.55;;;12.00;;
69203;SDS011;56317;27.658;85.326;2022-09-12T07:21:32;22.52;;;9.52;;
69203;SDS011;56317;27.658;85.326;2022-09-12T07:24:04;10.10;;;4.45;;
69203;SDS011;56317;27.658;85.326;2022-09-12T07:26:34;14.30;;;8.95;;
69203;SDS011;56317;27.658;85.326;2022-09-12T07:29:01;7.43;;;3.88;;
69203;SDS011;56317;27.658;85.326;2022-09-12T07:31:29;8.45;;;3.78;;
69203;SDS011;56317;27.658;85.326;2022-09-12T07:33:56;14.05;;;7.47;;
69203;SDS011;56317;27.658;85.326;2022-09-12T07:36:24;12.15;;;7.32;;
69203;SDS011;56317;27.658;85.326;2022-09-12T07:38:54;9.95;;;6.05;;
69203;SDS011;56317;27.658;85.326;2022-09-12T07:41:26;5.72;;;2.85;;
69203;SDS011;56317;27.658;85.326;2022-09-12T07:46:23;5.57;;;3.03;;
69203;SDS011;56317;27.658;85.326;2022-09-12T07:48:51;10.52;;;4.95;;
69203;SDS011;56317;27.658;85.326;2022-09-12T07:51:20;14.43;;;7.25;;
69203;SDS011;56317;27.658;85.326;2022-09-12T07:53:51;13.95;;;6.53;;
69203;SDS011;56317;27.658;85.326;2022-09-12T07:56:18;7.88;;;3.13;;
69203;SDS011;56317;27.658;85.326;2022-09-12T07:58:46;4.68;;;2.65;;
69203;SDS011;56317;27.658;85.326;2022-09-12T08:01:14;6.47;;;3.20;;
69203;SDS011;56317;27.658;85.326;2022-09-12T08:03:44;5.78;;;2.50;;
69203;SDS011;56317;27.658;85.326;2022-09-12T08:06:14;8.50;;;2.33;;
69203;SDS011;56317;27.658;85.326;2022-09-12T08:08:46;5.18;;;2.58;;
69203;SDS011;56317;27.658;85.326;2022-09-12T08:11:14;7.50;;;2.70;;
69203;SDS011;56317;27.658;85.326;2022-09-12T08:13:43;12.32;;;3.15;;
69203;SDS011;56317;27.658;85.326;2022-09-12T08:16:11;4.80;;;2.50;;
69203;SDS011;56317;27.658;85.326;2022-09-12T08:21:18;5.75;;;2.58;;
69203;SDS011;56317;27.658;85.326;2022-09-12T08:23:46;3.78;;;2.25;;
69203;SDS011;56317;27.658;85.326;2022-09-12T08:26:25;4.50;;;2.65;;
69203;SDS011;56317;27.658;85.326;2022-09-12T08:28:53;6.70;;;2.90;;
69203;SDS011;56317;27.658;85.326;2022-09-12T08:31:21;10.52;;;3.10;;
69203;SDS011;56317;27.658;85.326;2022-09-12T08:33:50;11.68;;;3.15;;
69203;SDS011;56317;27.658;85.326;2022-09-12T08:36:21;3.78;;;2.13;;
69203;SDS011;56317;27.658;85.326;2022-09-12T08:38:53;7.35;;;2.28;;
69203;SDS011;56317;27.658;85.326;2022-09-12T08:49:14;8.95;;;2.35;;
69203;SDS011;56317;27.658;85.326;2022-09-12T08:51:51;6.45;;;2.15;;
69203;SDS011;56317;27.658;85.326;2022-09-12T08:54:22;3.50;;;1.77;;
69203;SDS011;56317;27.658;85.326;2022-09-12T08:56:55;6.70;;;2.33;;
69203;SDS011;56317;27.658;85.326;2022-09-12T08:59:29;8.18;;;2.10;;
69203;SDS011;56317;27.658;85.326;2022-09-12T09:02:29;9.40;;;2.47;;
69203;SDS011;56317;27.658;85.326;2022-09-12T09:05:09;8.05;;;2.92;;
69203;SDS011;56317;27.658;85.326;2022-09-12T09:10:46;6.70;;;2.95;;
69203;SDS011;56317;27.658;85.326;2022-09-12T09:18:59;11.73;;;3.15;;
69203;SDS011;56317;27.658;85.326;2022-09-12T09:21:40;5.55;;;2.38;;
69203;SDS011;56317;27.658;85.326;2022-09-12T09:24:17;6.65;;;2.50;;
69203;SDS011;56317;27.658;85.326;2022-09-12T09:26:56;4.53;;;2.15;;
69203;SDS011;56317;27.658;85.326;2022-09-12T09:29:35;4.07;;;2.30;;
69203;SDS011;56317;27.658;85.326;2022-09-12T09:34:40;8.52;;;2.78;;
69203;SDS011;56317;27.658;85.326;2022-09-12T09:37:22;8.40;;;3.03;;
69203;SDS011;56317;27.658;85.326;2022-09-12T09:42:44;8.38;;;2.80;;
69203;SDS011;56317;27.658;85.326;2022-09-12T09:45:23;7.72;;;2.63;;
69203;SDS011;56317;27.658;85.326;2022-09-12T09:50:33;5.70;;;2.50;;
69203;SDS011;56317;27.658;85.326;2022-09-12T09:53:01;5.72;;;2.15;;
69203;SDS011;56317;27.658;85.326;2022-09-12T09:55:32;5.57;;;1.97;;
69203;SDS011;56317;27.658;85.326;2022-09-12T09:58:06;7.35;;;2.67;;
69203;SDS011;56317;27.658;85.326;2022-09-12T10:00:34;8.00;;;2.00;;
69203;SDS011;56317;27.658;85.326;2022-09-12T10:05:52;4.50;;;1.90;;
69203;SDS011;56317;27.658;85.326;2022-09-12T10:08:24;8.73;;;2.22;;
69203;SDS011;56317;27.658;85.326;2022-09-12T10:11:16;6.93;;;2.00;;
69203;SDS011;56317;27.658;85.326;2022-09-12T10:16:20;11.13;;;3.47;;
69203;SDS011;56317;27.658;85.326;2022-09-12T10:19:23;5.45;;;2.55;;
69203;SDS011;56317;27.658;85.326;2022-09-12T10:22:06;13.40;;;2.47;;
69203;SDS011;56317;27.658;85.326;2022-09-12T10:24:46;6.35;;;2.40;;
69203;SDS011;56317;27.658;85.326;2022-09-12T10:27:30;8.48;;;2.78;;
69203;SDS011;56317;27.658;85.326;2022-09-12T10:32:29;4.32;;;1.80;;
69203;SDS011;56317;27.658;85.326;2022-09-12T10:35:06;6.25;;;2.35;;
69203;SDS011;56317;27.658;85.326;2022-09-12T10:40:27;5.60;;;2.60;;
69203;SDS011;56317;27.658;85.326;2022-09-12T10:43:00;6.72;;;2.50;;
69203;SDS011;56317;27.658;85.326;2022-09-12T10:45:40;4.28;;;2.17;;
69203;SDS011;56317;27.658;85.326;2022-09-12T10:54:19;9.77;;;3.20;;
69203;SDS011;56317;27.658;85.326;2022-09-12T11:00:16;10.73;;;3.58;;
69203;SDS011;56317;27.658;85.326;2022-09-12T11:03:04;9.02;;;2.60;;
69203;SDS011;56317;27.658;85.326;2022-09-12T11:08:30;6.43;;;2.30;;
69203;SDS011;56317;27.658;85.326;2022-09-12T11:11:17;8.85;;;2.90;;
69203;SDS011;56317;27.658;85.326;2022-09-12T11:14:00;6.53;;;3.08;;
69203;SDS011;56317;27.658;85.326;2022-09-12T11:16:39;8.30;;;3.28;;
69203;SDS011;56317;27.658;85.326;2022-09-12T11:30:15;8.75;;;4.47;;
69203;SDS011;56317;27.658;85.326;2022-09-12T11:39:11;9.90;;;3.58;;
69203;SDS011;56317;27.658;85.326;2022-09-12T11:41:46;5.60;;;2.88;;
69203;SDS011;56317;27.658;85.326;2022-09-12T11:46:54;6.82;;;3.05;;
69203;SDS011;56317;27.658;85.326;2022-09-12T11:49:35;12.18;;;6.50;;
69203;SDS011;56317;27.658;85.326;2022-09-12T11:52:14;8.85;;;4.78;;
69203;SDS011;56317;27.658;85.326;2022-09-12T11:54:49;8.77;;;2.53;;
69203;SDS011;56317;27.658;85.326;2022-09-12T11:57:36;10.43;;;3.55;;
69203;SDS011;56317;27.658;85.326;2022-09-12T12:00:45;3.65;;;2.22;;
69203;SDS011;56317;27.658;85.326;2022-09-12T12:03:21;6.05;;;2.28;;
69203;SDS011;56317;27.658;85.326;2022-09-12T12:06:03;11.18;;;2.90;;
69203;SDS011;56317;27.658;85.326;2022-09-12T12:08:43;7.87;;;4.67;;
69203;SDS011;56317;27.658;85.326;2022-09-12T12:11:13;16.27;;;6.20;;
69203;SDS011;56317;27.658;85.326;2022-09-12T12:13:58;9.25;;;4.45;;
69203;SDS011;56317;27.658;85.326;2022-09-12T12:16:36;10.80;;;3.67;;
69203;SDS011;56317;27.658;85.326;2022-09-12T12:21:53;9.00;;;5.05;;
69203;SDS011;56317;27.658;85.326;2022-09-12T12:24:28;18.98;;;6.78;;
69203;SDS011;56317;27.658;85.326;2022-09-12T12:26:59;9.25;;;2.58;;
69203;SDS011;56317;27.658;85.326;2022-09-12T12:34:29;8.73;;;4.60;;
69203;SDS011;56317;27.658;85.326;2022-09-12T12:45:00;14.43;;;6.78;;
69203;SDS011;56317;27.658;85.326;2022-09-12T12:47:51;12.30;;;4.25;;
69203;SDS011;56317;27.658;85.326;2022-09-12T12:50:21;9.80;;;4.57;;
69203;SDS011;56317;27.658;85.326;2022-09-12T12:58:02;12.40;;;4.72;;
69203;SDS011;56317;27.658;85.326;2022-09-12T13:00:47;9.88;;;3.78;;
69203;SDS011;56317;27.658;85.326;2022-09-12T13:03:31;11.57;;;4.00;;
69203;SDS011;56317;27.658;85.326;2022-09-12T13:06:04;11.38;;;4.53;;
69203;SDS011;56317;27.658;85.326;2022-09-12T13:08:35;10.57;;;5.38;;
69203;SDS011;56317;27.658;85.326;2022-09-12T13:11:13;10.93;;;3.90;;
69203;SDS011;56317;27.658;85.326;2022-09-12T13:14:02;10.48;;;3.90;;
69203;SDS011;56317;27.658;85.326;2022-09-12T13:16:38;11.30;;;3.75;;
69203;SDS011;56317;27.658;85.326;2022-09-12T13:19:20;16.92;;;4.00;;
69203;SDS011;56317;27.658;85.326;2022-09-12T13:21:59;10.13;;;3.87;;
69203;SDS011;56317;27.658;85.326;2022-09-12T13:24:30;17.17;;;4.35;;
69203;SDS011;56317;27.658;85.326;2022-09-12T13:26:57;10.93;;;4.55;;
69203;SDS011;56317;27.658;85.326;2022-09-12T13:29:25;17.15;;;5.43;;
69203;SDS011;56317;27.658;85.326;2022-09-12T13:31:57;11.10;;;4.95;;
69203;SDS011;56317;27.658;85.326;2022-09-12T13:34:30;12.18;;;3.92;;
69203;SDS011;56317;27.658;85.326;2022-09-12T13:42:47;9.77;;;3.55;;
69203;SDS011;56317;27.658;85.326;2022-09-12T13:45:21;9.38;;;3.28;;
69203;SDS011;56317;27.658;85.326;2022-09-12T13:47:55;12.45;;;4.15;;
69203;SDS011;56317;27.658;85.326;2022-09-12T13:50:50;8.32;;;3.35;;
69203;SDS011;56317;27.658;85.326;2022-09-12T13:53:17;8.60;;;3.38;;
69203;SDS011;56317;27.658;85.326;2022-09-12T13:56:06;16.65;;;3.97;;
69203;SDS011;56317;27.658;85.326;2022-09-12T13:58:33;7.88;;;3.05;;
69203;SDS011;56317;27.658;85.326;2022-09-12T14:01:12;13.48;;;3.95;;
69203;SDS011;56317;27.658;85.326;2022-09-12T14:03:41;11.45;;;4.15;;
69203;SDS011;56317;27.658;85.326;2022-09-12T14:06:27;14.30;;;5.22;;
69203;SDS011;56317;27.658;85.326;2022-09-12T14:09:00;16.25;;;4.18;;
69203;SDS011;56317;27.658;85.326;2022-09-12T14:11:28;10.82;;;4.40;;
69203;SDS011;56317;27.658;85.326;2022-09-12T14:13:58;15.13;;;4.32;;
69203;SDS011;56317;27.658;85.326;2022-09-12T14:16:31;10.85;;;4.07;;
69203;SDS011;56317;27.658;85.326;2022-09-12T14:19:03;17.27;;;7.45;;
69203;SDS011;56317;27.658;85.326;2022-09-12T14:21:32;14.15;;;7.15;;
69203;SDS011;56317;27.658;85.326;2022-09-12T14:24:01;12.35;;;5.70;;
69203;SDS011;56317;27.658;85.326;2022-09-12T14:26:37;14.10;;;5.45;;
69203;SDS011;56317;27.658;85.326;2022-09-12T14:29:07;9.80;;;4.50;;
69203;SDS011;56317;27.658;85.326;2022-09-12T14:31:38;10.00;;;4.90;;
69203;SDS011;56317;27.658;85.326;2022-09-12T14:36:48;9.55;;;3.85;;
69203;SDS011;56317;27.658;85.326;2022-09-12T14:39:25;6.13;;;3.40;;
69203;SDS011;56317;27.658;85.326;2022-09-12T14:44:36;13.18;;;4.70;;
69203;SDS011;56317;27.658;85.326;2022-09-12T14:47:13;7.20;;;3.53;;
69203;SDS011;56317;27.658;85.326;2022-09-12T14:49:45;8.03;;;3.53;;
69203;SDS011;56317;27.658;85.326;2022-09-12T14:55:41;10.07;;;3.83;;
69203;SDS011;56317;27.658;85.326;2022-09-12T14:58:11;9.95;;;3.30;;
69203;SDS011;56317;27.658;85.326;2022-09-12T15:00:51;8.10;;;2.97;;
69203;SDS011;56317;27.658;85.326;2022-09-12T15:05:54;6.97;;;2.40;;
69203;SDS011;56317;27.658;85.326;2022-09-12T15:08:22;7.40;;;3.10;;
69203;SDS011;56317;27.658;85.326;2022-09-12T15:10:49;8.70;;;3.38;;
69203;SDS011;56317;27.658;85.326;2022-09-12T15:13:18;5.65;;;2.80;;
69203;SDS011;56317;27.658;85.326;2022-09-12T15:15:51;5.93;;;2.60;;
69203;SDS011;56317;27.658;85.326;2022-09-12T15:18:21;5.50;;;2.72;;
69203;SDS011;56317;27.658;85.326;2022-09-12T15:20:51;6.60;;;2.83;;
69203;SDS011;56317;27.658;85.326;2022-09-12T15:23:31;5.82;;;2.90;;
69203;SDS011;56317;27.658;85.326;2022-09-12T15:26:00;11.75;;;3.05;;
69203;SDS011;56317;27.658;85.326;2022-09-12T15:28:28;7.70;;;3.47;;
69203;SDS011;56317;27.658;85.326;2022-09-12T15:30:56;12.40;;;3.50;;
69203;SDS011;56317;27.658;85.326;2022-09-12T15:33:31;12.63;;;3.03;;
69203;SDS011;56317;27.658;85.326;2022-09-12T15:35:58;11.68;;;3.60;;
69203;SDS011;56317;27.658;85.326;2022-09-12T15:38:26;9.75;;;3.80;;
69203;SDS011;56317;27.658;85.326;2022-09-12T15:40:53;8.85;;;3.67;;
69203;SDS011;56317;27.658;85.326;2022-09-12T15:43:20;8.80;;;3.17;;
69203;SDS011;56317;27.658;85.326;2022-09-12T15:45:50;6.90;;;3.33;;
69203;SDS011;56317;27.658;85.326;2022-09-12T15:48:18;9.77;;;3.28;;
69203;SDS011;56317;27.658;85.326;2022-09-12T15:50:45;8.52;;;3.17;;
69203;SDS011;56317;27.658;85.326;2022-09-12T15:53:13;11.32;;;3.63;;
69203;SDS011;56317;27.658;85.326;2022-09-12T15:55:41;8.05;;;3.13;;
69203;SDS011;56317;27.658;85.326;2022-09-12T15:58:09;10.45;;;3.40;;
69203;SDS011;56317;27.658;85.326;2022-09-12T16:00:36;6.85;;;3.15;;
69203;SDS011;56317;27.658;85.326;2022-09-12T16:03:03;16.35;;;3.25;;
69203;SDS011;56317;27.658;85.326;2022-09-12T16:05:30;11.98;;;4.30;;
69203;SDS011;56317;27.658;85.326;2022-09-12T16:07:58;7.90;;;2.90;;
69203;SDS011;56317;27.658;85.326;2022-09-12T16:10:26;13.10;;;3.70;;
69203;SDS011;56317;27.658;85.326;2022-09-12T16:12:55;6.78;;;2.65;;
69203;SDS011;56317;27.658;85.326;2022-09-12T16:15:24;19.50;;;3.63;;
69203;SDS011;56317;27.658;85.326;2022-09-12T16:17:51;8.48;;;2.90;;
69203;SDS011;56317;27.658;85.326;2022-09-12T16:20:19;8.05;;;2.90;;
69203;SDS011;56317;27.658;85.326;2022-09-12T16:22:48;9.45;;;2.92;;
69203;SDS011;56317;27.658;85.326;2022-09-12T16:25:15;7.82;;;3.20;;
69203;SDS011;56317;27.658;85.326;2022-09-12T16:27:43;8.57;;;2.90;;
69203;SDS011;56317;27.658;85.326;2022-09-12T16:30:12;12.07;;;3.60;;
69203;SDS011;56317;27.658;85.326;2022-09-12T16:32:39;8.63;;;3.42;;
69203;SDS011;56317;27.658;85.326;2022-09-12T16:35:06;10.32;;;3.45;;
69203;SDS011;56317;27.658;85.326;2022-09-12T16:37:34;7.03;;;3.00;;
69203;SDS011;56317;27.658;85.326;2022-09-12T16:40:02;6.93;;;2.50;;
69203;SDS011;56317;27.658;85.326;2022-09-12T16:42:30;9.05;;;3.08;;
69203;SDS011;56317;27.658;85.326;2022-09-12T16:44:57;9.65;;;3.15;;
69203;SDS011;56317;27.658;85.326;2022-09-12T16:47:24;11.90;;;3.15;;
69203;SDS011;56317;27.658;85.326;2022-09-12T16:49:56;9.07;;;3.72;;
69203;SDS011;56317;27.658;85.326;2022-09-12T16:52:24;9.25;;;3.25;;
69203;SDS011;56317;27.658;85.326;2022-09-12T16:54:51;7.93;;;3.38;;
69203;SDS011;56317;27.658;85.326;2022-09-12T16:57:18;15.98;;;4.15;;
69203;SDS011;56317;27.658;85.326;2022-09-12T16:59:45;17.40;;;3.78;;
69203;SDS011;56317;27.658;85.326;2022-09-12T17:02:12;13.27;;;4.10;;
69203;SDS011;56317;27.658;85.326;2022-09-12T17:04:40;13.10;;;3.83;;
69203;SDS011;56317;27.658;85.326;2022-09-12T17:07:08;12.48;;;3.75;;
69203;SDS011;56317;27.658;85.326;2022-09-12T17:09:35;13.68;;;4.00;;
69203;SDS011;56317;27.658;85.326;2022-09-12T17:12:02;12.90;;;4.82;;
69203;SDS011;56317;27.658;85.326;2022-09-12T17:14:29;19.45;;;4.80;;
69203;SDS011;56317;27.658;85.326;2022-09-12T17:16:56;14.63;;;5.25;;
69203;SDS011;56317;27.658;85.326;2022-09-12T17:19:24;7.97;;;3.33;;
69203;SDS011;56317;27.658;85.326;2022-09-12T17:21:56;9.82;;;3.00;;
69203;SDS011;56317;27.658;85.326;2022-09-12T17:24:24;10.02;;;2.95;;
69203;SDS011;56317;27.658;85.326;2022-09-12T17:26:51;4.97;;;2.63;;
69203;SDS011;56317;27.658;85.326;2022-09-12T17:29:19;5.88;;;2.67;;
69203;SDS011;56317;27.658;85.326;2022-09-12T17:31:46;4.00;;;2.25;;
69203;SDS011;56317;27.658;85.326;2022-09-12T17:34:13;6.60;;;2.58;;
69203;SDS011;56317;27.658;85.326;2022-09-12T17:36:42;4.57;;;2.33;;
69203;SDS011;56317;27.658;85.326;2022-09-12T17:39:12;6.80;;;3.10;;
69203;SDS011;56317;27.658;85.326;2022-09-12T17:41:40;10.85;;;2.90;;